Airfield :
LOGIN :

Register | Disclaimer

   EN    FR    IT 

 










Legend :    VFR   Marginal VFR   IFR   Intensive IFR   Very Intensive IFR
Visi :
Ceiling :
>= 8 km
>= 3000ft
5 to 8 km
1000 to 3000 ft
1500m to 5 km
500 to 1000 ft
800 to 1500m
200 to 500 ft
< 800m
< 200 ft
Symbols :   Thunderstorms  Fog  Heavy snow  Heavy precipitations  Wind > 20 kt
SIGMETs :     Misc.  Thunderstorms  Icing  Turbulence  Mountain Waves  Volcanic Ashes







- Airport Elevation : 1036 ft
- IATA code : ERF


EDDE - Erfurt

CURRENT METAR :
  • 221220Z 07013G24KT 040V100 9999 FEW036 00/M08 Q1022 NOSIG

EXPIRED METARs :
  • 221150Z 06015KT 9999 FEW033 M00/M09 Q1022 TEMPO 06015G25KT
  • 221120Z 06014KT 9999 FEW030 M00/M07 Q1022 TEMPO 06015G25KT
  • 221050Z 07013KT 040V100 9999 FEW028 M01/M08 Q1022 TEMPO 07015G25KT
  • 221020Z 07015KT 9999 SCT027 M01/M07 Q1023 NOSIG
  • 220950Z 06012KT 9999 FEW020 SCT034 M02/M07 Q1022 NOSIG
  • 220920Z 06011KT 9999 FEW020 BKN034 M02/M06 Q1022 NOSIG

TAF TAF EDDE
Valid from the 22 at 12:00 until the 23 at 12:00 UTC


221100Z 2212/2312 06013KT 9999 SCT035
TEMPO 2212/2215 06015G25KT
BECMG 2216/2218 06008KT
No reported NOTAMs for that airfield.



MET'MAP, your aeronautical weather chart ! - Copyright ORBIFLY December 2007 - Disclaimer

ORBIFLY MET'MAP TEAM :

Programming & Development : Alexandra Zaïnal
Concept & Development : Baudouin d'Aumeries
Co-Development & Prog : Marc-Olivier Méhu
Technical & hardware support : Manuel Goepfert

Contact : metmap@orbifly.com




SOURCES & CREDITS :

   NOAA